createdAt,value
2023-12-01T00:01:57.082Z,86725.53
2023-12-01T00:04:42.019Z,86726.91
2023-12-01T00:07:27.195Z,86739.63
2023-12-01T00:10:12.392Z,86731.00
2023-12-01T00:12:57.440Z,86721.19
2023-12-01T00:15:42.629Z,86712.72
2023-12-01T00:18:27.569Z,86716.47
2023-12-01T00:21:12.836Z,86718.03
2023-12-01T00:23:57.916Z,86708.38
2023-12-01T00:26:43.099Z,86698.53
2023-12-01T00:29:28.068Z,86694.91
2023-12-01T00:32:13.189Z,86691.41
2023-12-01T00:34:58.304Z,86688.31
2023-12-01T00:37:43.276Z,86677.47
2023-12-01T00:40:28.461Z,86679.91
2023-12-01T00:43:13.586Z,86701.75
2023-12-01T00:45:58.659Z,86691.41
2023-12-01T00:48:43.682Z,86667.97
2023-12-01T00:51:28.834Z,86671.09
2023-12-01T00:54:14.067Z,86674.84
2023-12-01T00:56:59.152Z,86673.75
2023-12-01T00:59:44.223Z,86678.03
2023-12-01T01:02:29.182Z,86672.34
2023-12-01T01:05:14.232Z,86667.72
2023-12-01T01:07:59.226Z,86683.06
2023-12-01T01:10:44.279Z,86681.16
2023-12-01T01:13:29.457Z,86652.91
2023-12-01T01:16:14.719Z,86678.06
2023-12-01T01:18:59.809Z,86672.78
2023-12-01T01:21:44.726Z,86661.63
2023-12-01T01:24:29.703Z,86666.16
2023-12-01T01:27:14.707Z,86664.94
2023-12-01T01:29:59.876Z,86657.88
2023-12-01T01:32:44.942Z,86687.50
2023-12-01T01:35:29.955Z,86694.09
2023-12-01T01:38:15.247Z,86689.63
2023-12-01T01:41:00.253Z,86694.84
2023-12-01T01:43:45.481Z,86702.25
2023-12-01T01:46:30.485Z,86701.72
2023-12-01T01:49:15.619Z,86708.94
2023-12-01T01:52:00.502Z,86701.38
2023-12-01T01:54:45.751Z,86696.00
2023-12-01T01:57:30.896Z,86699.56
2023-12-01T02:00:15.947Z,86706.78
2023-12-01T02:03:01.324Z,86695.09
2023-12-01T02:05:46.187Z,86695.44
2023-12-01T02:08:31.357Z,86682.84
2023-12-01T02:11:16.423Z,86684.56
2023-12-01T02:14:01.682Z,86685.06
2023-12-01T02:16:47.633Z,86686.63
2023-12-01T02:19:32.488Z,86703.84
2023-12-01T02:22:17.596Z,86696.09
2023-12-01T02:25:02.797Z,86703.47
2023-12-01T02:27:48.015Z,86702.25
2023-12-01T02:30:33.029Z,86706.34
2023-12-01T02:33:18.169Z,86700.84
2023-12-01T02:36:03.284Z,86694.81
2023-12-01T02:38:48.331Z,86703.66
2023-12-01T02:41:33.646Z,86695.72
2023-12-01T02:44:18.765Z,86687.44
2023-12-01T02:47:03.904Z,86675.03
2023-12-01T02:49:48.920Z,86680.75
2023-12-01T02:52:34.218Z,86669.06
2023-12-01T02:55:19.332Z,86674.41
2023-12-01T02:58:04.416Z,86662.13
2023-12-01T03:00:49.678Z,86655.25
2023-12-01T03:03:34.887Z,86661.13
2023-12-01T03:06:20.081Z,86659.03
2023-12-01T03:09:05.104Z,86657.81
2023-12-01T03:11:50.232Z,86662.75
2023-12-01T03:14:35.444Z,86662.88
2023-12-01T03:17:20.463Z,86658.56
2023-12-01T03:20:05.899Z,86667.84
2023-12-01T03:22:50.939Z,86673.03
2023-12-01T03:25:36.125Z,86672.03
2023-12-01T03:28:21.213Z,86667.94
2023-12-01T03:31:06.418Z,86673.09
2023-12-01T03:33:51.549Z,86671.72
2023-12-01T03:36:36.575Z,86667.94
2023-12-01T03:39:21.716Z,86681.72
2023-12-01T03:42:06.762Z,86677.94
2023-12-01T03:44:51.947Z,86683.28
2023-12-01T03:47:36.949Z,86675.31
2023-12-01T03:50:22.281Z,86673.81
2023-12-01T03:53:07.187Z,86684.75
2023-12-01T03:55:52.201Z,86687.69
2023-12-01T03:58:37.264Z,86688.22
2023-12-01T04:01:22.447Z,86691.69
2023-12-01T04:04:07.724Z,86691.53
2023-12-01T04:06:52.722Z,86692.22
2023-12-01T04:09:37.929Z,86695.66
2023-12-01T04:12:22.963Z,86685.47
2023-12-01T04:15:08.161Z,86679.09
2023-12-01T04:17:53.438Z,86681.66
2023-12-01T04:20:38.476Z,86673.41
2023-12-01T04:23:23.531Z,86674.59
2023-12-01T04:26:08.492Z,86672.72
2023-12-01T04:28:53.726Z,86672.75
2023-12-01T04:31:38.848Z,86662.41
2023-12-01T04:34:23.801Z,86679.84
2023-12-01T04:37:09.053Z,86673.47
2023-12-01T04:39:53.941Z,86672.41
2023-12-01T04:42:39.286Z,86662.59
2023-12-01T04:45:24.253Z,86675.50
2023-12-01T04:48:09.956Z,86671.50
2023-12-01T04:50:55.417Z,86665.53
2023-12-01T04:53:40.610Z,86671.06
2023-12-01T04:56:25.919Z,86675.19
2023-12-01T04:59:11.619Z,86660.34
2023-12-01T05:01:56.775Z,86669.16
2023-12-01T05:04:41.849Z,86665.69
2023-12-01T05:07:26.943Z,86675.72
2023-12-01T05:10:12.036Z,86681.59
2023-12-01T05:12:57.103Z,86681.97
2023-12-01T05:15:42.208Z,86678.34
2023-12-01T05:18:27.304Z,86683.50
2023-12-01T05:21:12.474Z,86694.66
2023-12-01T05:23:57.604Z,86698.09
2023-12-01T05:26:42.744Z,86704.84
2023-12-01T05:29:27.770Z,86693.50
2023-12-01T05:32:12.978Z,86705.22
2023-12-01T05:34:58.207Z,86701.75
2023-12-01T05:37:43.189Z,86693.97
2023-12-01T05:40:28.324Z,86699.78
2023-12-01T05:43:13.467Z,86696.66
2023-12-01T05:45:58.624Z,86697.84
2023-12-01T05:48:43.522Z,86685.06
2023-12-01T05:51:28.784Z,86699.72
2023-12-01T05:54:14.016Z,86696.50
2023-12-01T05:56:59.038Z,86696.72
2023-12-01T05:59:44.283Z,86699.16
2023-12-01T06:02:29.334Z,86714.16
2023-12-01T06:05:14.265Z,86709.47
2023-12-01T06:07:59.588Z,86715.16
2023-12-01T06:10:44.568Z,86707.19
2023-12-01T06:13:29.732Z,86713.38
2023-12-01T06:16:14.790Z,86705.28
2023-12-01T06:19:01.141Z,86713.88
2023-12-01T06:21:46.965Z,86700.94
2023-12-01T06:24:32.093Z,86711.13
2023-12-01T06:27:17.037Z,86705.09
2023-12-01T06:30:02.354Z,86706.34
2023-12-01T06:32:47.691Z,86703.84
2023-12-01T06:35:32.671Z,86706.94
2023-12-01T06:38:17.787Z,86690.25
2023-12-01T06:41:02.747Z,86675.78
2023-12-01T06:43:47.976Z,86685.41
2023-12-01T06:46:33.146Z,86688.16
2023-12-01T06:49:18.118Z,86695.59
2023-12-01T06:52:03.185Z,86695.94
2023-12-01T06:54:48.217Z,86703.19
2023-12-01T06:57:33.370Z,86729.69
2023-12-01T07:00:18.402Z,86740.53
2023-12-01T07:03:03.451Z,86744.31
2023-12-01T07:05:48.327Z,86748.78
2023-12-01T07:08:33.623Z,86753.97
2023-12-01T07:11:18.842Z,86752.06
2023-12-01T07:14:03.927Z,86757.03
2023-12-01T07:16:49.122Z,86751.19
2023-12-01T07:19:34.185Z,86748.78
2023-12-01T07:22:19.498Z,86751.19
2023-12-01T07:25:04.492Z,86744.13
2023-12-01T07:27:49.612Z,86752.03
2023-12-01T07:30:34.732Z,86751.88
2023-12-01T07:33:19.916Z,86747.25
2023-12-01T07:36:08.078Z,86761.69
2023-12-01T07:38:54.684Z,86751.19
2023-12-01T07:41:39.875Z,86755.69
2023-12-01T07:44:25.100Z,86750.72
2023-12-01T07:47:10.196Z,86750.88
2023-12-01T07:49:55.343Z,86751.56
2023-12-01T07:52:42.114Z,86756.56
2023-12-01T07:55:28.439Z,86759.81
2023-12-01T07:58:13.999Z,86762.03
2023-12-01T08:00:58.782Z,86766.53
2023-12-01T08:03:44.039Z,86762.91
2023-12-01T08:06:29.010Z,86758.97
2023-12-01T08:09:14.210Z,86749.50
2023-12-01T08:11:59.343Z,86740.56
2023-12-01T08:14:44.325Z,86729.72
2023-12-01T08:17:29.733Z,86737.09
2023-12-01T08:20:14.660Z,86721.25
2023-12-01T08:22:59.816Z,86728.16
2023-12-01T08:25:44.745Z,86724.03
2023-12-01T08:28:29.940Z,86728.00
2023-12-01T08:31:14.954Z,86747.09
2023-12-01T08:34:00.037Z,86751.41
2023-12-01T08:36:45.652Z,86742.78
2023-12-01T08:39:30.616Z,86735.56
2023-12-01T08:42:15.794Z,86725.09
2023-12-01T08:45:00.698Z,86721.13
2023-12-01T08:47:45.838Z,86734.69
2023-12-01T08:50:30.913Z,86734.38
2023-12-01T08:53:16.013Z,86736.94
2023-12-01T08:56:01.184Z,86734.53
2023-12-01T08:58:46.237Z,86730.56
2023-12-01T09:01:31.367Z,86736.06
2023-12-01T09:04:16.479Z,86720.25
2023-12-01T09:07:03.217Z,86725.22
2023-12-01T09:09:49.760Z,86723.69
2023-12-01T09:12:35.264Z,86710.59
2023-12-01T09:15:20.312Z,86723.16
2023-12-01T09:18:05.445Z,86727.28
2023-12-01T09:20:50.379Z,86730.69
2023-12-01T09:23:35.396Z,86726.75
2023-12-01T09:26:20.563Z,86715.06
2023-12-01T09:29:05.599Z,86715.44
2023-12-01T09:31:50.682Z,86704.56
2023-12-01T09:34:35.815Z,86716.97
2023-12-01T09:37:20.650Z,86722.47
2023-12-01T09:40:05.803Z,86724.19
2023-12-01T09:42:50.720Z,86721.63
2023-12-01T09:45:36.015Z,86733.16
2023-12-01T09:48:21.202Z,86732.97
2023-12-01T09:51:06.231Z,86734.53
2023-12-01T09:53:51.347Z,86731.59
2023-12-01T09:56:36.267Z,86725.59
2023-12-01T09:59:21.497Z,86724.75
2023-12-01T10:02:06.826Z,86720.94
2023-12-01T10:04:51.738Z,86719.56
2023-12-01T10:07:36.786Z,86715.44
2023-12-01T10:10:21.834Z,86705.28
2023-12-01T10:13:06.978Z,86699.06
2023-12-01T10:15:51.851Z,86690.66
2023-12-01T10:18:37.145Z,86681.69
2023-12-01T10:21:22.148Z,86683.09
2023-12-01T10:24:07.326Z,86681.16
2023-12-01T10:26:52.327Z,86683.72
2023-12-01T10:29:37.406Z,86677.56
2023-12-01T10:32:22.540Z,86680.34
2023-12-01T10:35:07.529Z,86684.81
2023-12-01T10:37:52.637Z,86682.41
2023-12-01T10:40:37.689Z,86684.31
2023-12-01T10:43:22.957Z,86682.06
2023-12-01T10:46:07.976Z,86682.25
2023-12-01T10:48:52.992Z,86687.94
2023-12-01T10:51:38.013Z,86685.34
2023-12-01T10:54:23.128Z,86669.19
2023-12-01T10:57:08.529Z,86672.41
2023-12-01T10:59:54.803Z,86658.09
2023-12-01T11:02:40.891Z,86653.72
2023-12-01T11:05:25.979Z,86661.25
2023-12-01T11:08:11.088Z,86649.66
2023-12-01T11:10:56.358Z,86625.13
2023-12-01T11:13:41.437Z,86634.69
2023-12-01T11:16:26.544Z,86628.91
2023-12-01T11:19:11.559Z,86615.22
2023-12-01T11:21:56.511Z,86619.09
2023-12-01T11:24:41.621Z,86613.81
2023-12-01T11:27:26.816Z,86626.00
2023-12-01T11:30:11.978Z,86614.13
2023-12-01T11:32:57.091Z,86617.00
2023-12-01T11:35:42.162Z,86613.38
2023-12-01T11:38:27.060Z,86608.03
2023-12-01T11:41:12.260Z,86601.63
2023-12-01T11:43:57.315Z,86614.00
2023-12-01T11:46:42.553Z,86605.22
2023-12-01T11:49:27.664Z,86600.56
2023-12-01T11:52:13.134Z,86598.31
2023-12-01T11:54:58.274Z,86580.00
2023-12-01T11:57:43.321Z,86582.97
2023-12-01T12:00:28.334Z,86576.94
2023-12-01T12:03:13.413Z,86577.72
2023-12-01T12:05:58.591Z,86570.50
2023-12-01T12:08:43.842Z,86581.53
2023-12-01T12:11:28.734Z,86586.59
2023-12-01T12:14:13.985Z,86587.78
2023-12-01T12:16:58.839Z,86573.72
2023-12-01T12:19:50.531Z,86576.81
2023-12-01T12:22:38.119Z,86560.47
2023-12-01T12:25:23.459Z,86563.75
2023-12-01T12:28:08.450Z,86565.78
2023-12-01T12:30:53.710Z,86566.91
2023-12-01T12:33:38.729Z,86564.16
2023-12-01T12:36:23.946Z,86560.84
2023-12-01T12:39:09.051Z,86561.78
2023-12-01T12:41:54.106Z,86561.22
2023-12-01T12:44:44.306Z,86557.25
2023-12-01T12:47:29.987Z,86554.38
2023-12-01T12:50:15.024Z,86560.22
2023-12-01T12:53:00.164Z,86557.31
2023-12-01T12:55:45.169Z,86549.03
2023-12-01T12:58:30.486Z,86541.59
2023-12-01T13:01:15.630Z,86545.16
2023-12-01T13:04:00.717Z,86540.00
2023-12-01T13:06:49.281Z,86531.44
2023-12-01T13:09:35.219Z,86527.63
2023-12-01T13:12:20.417Z,86504.69
2023-12-01T13:15:05.492Z,86508.63
2023-12-01T13:17:50.647Z,86506.22
2023-12-01T13:20:35.649Z,86506.91
2023-12-01T13:23:20.723Z,86504.63
2023-12-01T13:26:05.888Z,86505.63
2023-12-01T13:28:51.003Z,86505.53
2023-12-01T13:31:36.212Z,86509.94
2023-12-01T13:34:21.139Z,86503.16
2023-12-01T13:37:06.377Z,86505.97
2023-12-01T13:39:51.552Z,86498.31
2023-12-01T13:42:36.684Z,86507.00
2023-12-01T13:45:21.744Z,86503.38
2023-12-01T13:48:06.708Z,86509.41
2023-12-01T13:50:52.185Z,86510.06
2023-12-01T13:53:37.767Z,86509.38
2023-12-01T13:56:22.933Z,86505.75
2023-12-01T13:59:07.957Z,86512.44
2023-12-01T14:01:53.035Z,86505.53
2023-12-01T14:04:38.409Z,86496.25
2023-12-01T14:07:23.177Z,86505.16
2023-12-01T14:10:08.369Z,86498.09
2023-12-01T14:12:53.338Z,86490.13
2023-12-01T14:15:38.619Z,86486.72
2023-12-01T14:18:23.877Z,86484.16
2023-12-01T14:21:08.790Z,86483.16
2023-12-01T14:23:53.951Z,86468.53
2023-12-01T14:26:39.027Z,86476.41
2023-12-01T14:29:24.187Z,86482.84
2023-12-01T14:32:15.706Z,86476.47
2023-12-01T14:35:05.864Z,86477.00
2023-12-01T14:37:50.843Z,86475.47
2023-12-01T14:40:36.047Z,86480.88
2023-12-01T14:43:21.043Z,86481.03
2023-12-01T14:46:07.474Z,86486.50
2023-12-01T14:48:52.449Z,86480.22
2023-12-01T14:51:37.542Z,86481.09
2023-12-01T14:54:22.773Z,86479.91
2023-12-01T14:57:07.875Z,86472.75
2023-12-01T14:59:53.017Z,86478.97
2023-12-01T15:02:38.161Z,86473.31
2023-12-01T15:05:23.134Z,86466.75
2023-12-01T15:08:08.265Z,86463.47
2023-12-01T15:10:53.320Z,86468.97
2023-12-01T15:13:38.648Z,86463.47
2023-12-01T15:16:23.630Z,86449.00
2023-12-01T15:19:08.814Z,86451.41
2023-12-01T15:21:53.808Z,86454.13
2023-12-01T15:24:38.972Z,86446.03
2023-12-01T15:27:24.002Z,86437.44
2023-12-01T15:30:09.116Z,86441.38
2023-12-01T15:32:54.595Z,86440.75
2023-12-01T15:35:39.527Z,86435.22
2023-12-01T15:38:24.667Z,86434.50
2023-12-01T15:41:09.634Z,86434.69
2023-12-01T15:43:54.891Z,86432.41
2023-12-01T15:46:39.852Z,86428.25
2023-12-01T15:49:24.956Z,86428.25
2023-12-01T15:52:10.144Z,86434.16
2023-12-01T15:54:55.188Z,86436.03
2023-12-01T15:57:40.251Z,86421.44
2023-12-01T16:00:25.292Z,86430.56
2023-12-01T16:03:10.726Z,86431.84
2023-12-01T16:05:56.784Z,86438.47
2023-12-01T16:08:42.591Z,86436.06
2023-12-01T16:11:27.824Z,86434.91
2023-12-01T16:14:12.857Z,86442.28
2023-12-01T16:16:58.076Z,86453.44
2023-12-01T16:19:43.200Z,86453.78
2023-12-01T16:22:28.273Z,86460.47
2023-12-01T16:25:13.486Z,86465.25
2023-12-01T16:27:58.509Z,86467.00
2023-12-01T16:30:43.665Z,86464.41
2023-12-01T16:33:28.624Z,86471.78
2023-12-01T16:36:31.015Z,86470.25
2023-12-01T16:39:18.126Z,86476.72
2023-12-01T16:42:03.260Z,86488.75
2023-12-01T16:44:48.417Z,86492.22
2023-12-01T16:47:33.209Z,86493.59
2023-12-01T16:50:18.476Z,86505.13
2023-12-01T16:53:03.484Z,86511.97
2023-12-01T16:55:48.656Z,86499.94
2023-12-01T16:58:33.774Z,86501.63
2023-12-01T17:01:18.868Z,86507.47
2023-12-01T17:04:03.949Z,86512.44
2023-12-01T17:06:48.930Z,86521.53
2023-12-01T17:09:34.036Z,86511.44
2023-12-01T17:12:19.279Z,86504.41
2023-12-01T17:15:04.260Z,86508.38
2023-12-01T17:17:49.200Z,86506.66
2023-12-01T17:20:34.277Z,86503.41
2023-12-01T17:23:19.562Z,86499.97
2023-12-01T17:26:04.591Z,86485.72
2023-12-01T17:28:49.856Z,86488.28
2023-12-01T17:31:34.975Z,86489.81
2023-12-01T17:34:19.960Z,86482.59
2023-12-01T17:37:04.938Z,86481.94
2023-12-01T17:39:50.002Z,86475.22
2023-12-01T17:42:35.089Z,86484.00
2023-12-01T17:45:20.173Z,86478.69
2023-12-01T17:48:05.537Z,86481.25
2023-12-01T17:50:50.660Z,86471.81
2023-12-01T17:53:35.800Z,86461.34
2023-12-01T17:56:20.780Z,86467.00
2023-12-01T17:59:05.920Z,86464.75
2023-12-01T18:01:51.211Z,86465.97
2023-12-01T18:04:36.269Z,86472.28
2023-12-01T18:07:21.417Z,86475.41
2023-12-01T18:10:06.465Z,86473.69
2023-12-01T18:12:51.514Z,86479.88
2023-12-01T18:15:36.517Z,86480.41
2023-12-01T18:18:21.703Z,86497.38
2023-12-01T18:21:06.717Z,86495.84
2023-12-01T18:23:51.872Z,86503.03
2023-12-01T18:26:40.361Z,86506.13
2023-12-01T18:29:26.559Z,86508.72
2023-12-01T18:32:11.599Z,86502.00
2023-12-01T18:34:56.736Z,86505.63
2023-12-01T18:37:41.654Z,86507.84
2023-12-01T18:40:26.941Z,86504.94
2023-12-01T18:43:12.006Z,86495.84
2023-12-01T18:45:57.340Z,86496.53
2023-12-01T18:48:42.472Z,86506.50
2023-12-01T18:51:27.390Z,86506.13
2023-12-01T18:54:12.556Z,86510.25
2023-12-01T18:56:57.536Z,86518.00
2023-12-01T18:59:42.685Z,86513.34
2023-12-01T19:02:27.798Z,86514.41
2023-12-01T19:05:12.831Z,86515.75
2023-12-01T19:07:57.868Z,86519.19
2023-12-01T19:10:43.070Z,86521.94
2023-12-01T19:13:28.164Z,86530.19
2023-12-01T19:16:13.291Z,86532.56
2023-12-01T19:18:58.464Z,86535.13
2023-12-01T19:21:43.511Z,86543.22
2023-12-01T19:24:28.650Z,86538.94
2023-12-01T19:27:13.710Z,86546.16
2023-12-01T19:29:58.758Z,86554.22
2023-12-01T19:32:43.931Z,86545.13
2023-12-01T19:35:29.965Z,86552.31
2023-12-01T19:38:15.112Z,86547.00
2023-12-01T19:41:00.227Z,86543.56
2023-12-01T19:43:45.428Z,86546.31
2023-12-01T19:46:30.550Z,86545.47
2023-12-01T19:49:15.766Z,86544.41
2023-12-01T19:52:00.874Z,86541.53
2023-12-01T19:54:45.819Z,86542.38
2023-12-01T19:57:31.036Z,86540.50
2023-12-01T20:00:16.019Z,86538.06
2023-12-01T20:03:01.210Z,86543.75
2023-12-01T20:05:46.401Z,86545.81
2023-12-01T20:08:31.450Z,86543.22
2023-12-01T20:11:16.722Z,86533.63
2023-12-01T20:14:01.807Z,86539.75
2023-12-01T20:16:46.995Z,86525.19
2023-12-01T20:19:32.057Z,86525.03
2023-12-01T20:22:17.178Z,86526.38
2023-12-01T20:25:02.177Z,86511.31
2023-12-01T20:27:47.417Z,86517.81
2023-12-01T20:30:32.567Z,86515.06
2023-12-01T20:33:17.780Z,86514.38
2023-12-01T20:36:02.838Z,86513.16
2023-12-01T20:38:47.974Z,86519.53
2023-12-01T20:41:33.113Z,86536.88
2023-12-01T20:44:18.258Z,86525.72
2023-12-01T20:47:03.293Z,86523.31
2023-12-01T20:49:48.491Z,86510.75
2023-12-01T20:52:33.450Z,86521.25
2023-12-01T20:55:18.612Z,86524.50
2023-12-01T20:58:03.797Z,86524.66
2023-12-01T21:00:48.886Z,86522.25
2023-12-01T21:03:34.039Z,86526.69
2023-12-01T21:06:19.327Z,86546.75
2023-12-01T21:09:04.268Z,86557.41
2023-12-01T21:11:49.404Z,86558.78
2023-12-01T21:14:34.500Z,86558.97
2023-12-01T21:17:19.501Z,86552.28
2023-12-01T21:20:04.693Z,86545.09
2023-12-01T21:22:49.761Z,86557.09
2023-12-01T21:25:34.796Z,86550.19
2023-12-01T21:28:19.858Z,86551.25
2023-12-01T21:31:04.968Z,86550.53
2023-12-01T21:33:50.363Z,86539.91
2023-12-01T21:36:35.114Z,86545.38
2023-12-01T21:39:20.310Z,86547.13
2023-12-01T21:42:05.373Z,86546.59
2023-12-01T21:44:50.386Z,86548.31
2023-12-01T21:47:35.424Z,86550.19
2023-12-01T21:50:20.664Z,86552.75
2023-12-01T21:53:05.535Z,86554.09
2023-12-01T21:55:50.479Z,86557.16
2023-12-01T21:58:35.799Z,86552.69
2023-12-01T22:01:20.845Z,86549.28
2023-12-01T22:04:06.173Z,86569.66
2023-12-01T22:06:53.721Z,86557.00
2023-12-01T22:09:38.742Z,86557.47
2023-12-01T22:12:24.069Z,86557.50
2023-12-01T22:15:09.209Z,86548.41
2023-12-01T22:17:54.382Z,86550.84
2023-12-01T22:20:39.206Z,86545.03
2023-12-01T22:23:24.443Z,86526.69
2023-12-01T22:26:09.562Z,86521.34
2023-12-01T22:28:54.745Z,86527.00
2023-12-01T22:31:39.883Z,86530.94
2023-12-01T22:34:24.993Z,86529.53
2023-12-01T22:37:10.044Z,86535.53
2023-12-01T22:39:55.107Z,86532.41
2023-12-01T22:42:40.385Z,86534.63
2023-12-01T22:45:25.547Z,86518.81
2023-12-01T22:48:10.798Z,86521.38
2023-12-01T22:50:55.898Z,86517.09
2023-12-01T22:53:40.884Z,86512.66
2023-12-01T22:56:26.204Z,86514.91
2023-12-01T22:59:11.393Z,86512.53
2023-12-01T23:01:56.571Z,86508.94
2023-12-01T23:04:41.719Z,86503.13
2023-12-01T23:07:26.541Z,86509.47
2023-12-01T23:10:11.726Z,86512.00
2023-12-01T23:12:56.696Z,86509.44
2023-12-01T23:15:41.965Z,86521.44
2023-12-01T23:18:27.192Z,86513.88
2023-12-01T23:21:12.108Z,86510.28
2023-12-01T23:23:57.158Z,86517.59
2023-12-01T23:26:42.265Z,86523.59
2023-12-01T23:29:27.386Z,86518.78
2023-12-01T23:32:12.613Z,86512.94
2023-12-01T23:34:57.877Z,86515.69
2023-12-01T23:37:42.885Z,86512.78
2023-12-01T23:40:27.986Z,86504.25
2023-12-01T23:43:13.008Z,86507.38
2023-12-01T23:45:58.133Z,86503.59
2023-12-01T23:48:43.420Z,86510.09
2023-12-01T23:51:28.605Z,86496.88
2023-12-01T23:54:13.675Z,86488.97
2023-12-01T23:56:58.609Z,86482.31
2023-12-01T23:59:43.778Z,86492.06
